Archival Weather

Joint Base Andrews

Camp Springs, Maryland (KADW)

Report from: Tuesday, February 27, 2024 10:56 PM EST
Current time: Wednesday, May 29, 2024 7:13 PM EDT

Current weather – Weather history – Daily summaries
Weather forecast

Present weatherLight rain
Temperature14.0°C (57.2°F)
Dew point12.0°C (53.6°F)
Winds 7 kts (3.6 m/s, 8.1 mph) South-Southeast (160°)
Visibility10 mi. (16.1 km)
Clouds Ceiling: Overcast 1,200 ft. (366 m)
Altimeter29.80 in.Hg (1009 mB)
Precip. events Rain began 3:56 AM
Relative humidity88 %
Density altitude198 ft. (60 m)
Sea-level pressure101.0 kPa (1010 mB, 29.82 in.Hg)
Remarks Fully automated report
System requires maintenance
Special weather observation
Automated weather observing station with precipitation discriminator
Ceiling
Flight conditions Marginal Visual Meteorological Conditions
Raw dataSPXX60 KWBC 280402 SPECI KADW 280356Z AUTO 16007KT 10SM -RA OVC012 14/12 A2980 RMK AO2 RAB56 CIG 007 RWY19L SLP097 $
An error has occurred. This application may no longer respond until reloaded. Reload 🗙